LJLJ Airport Information

Runway Information
Runway 13 Length 10827 ft width 148 ft
Elevation 1273 ft Threshold 0 ft Heading 126
Runway 31 Length 10827 ft Width 148 ft
Elevation 1191 ft Threshold 0 ft Heading 306
Airport Frequencies
Type A/D Name APP Frequency 135.275 MHZ
Type ATIS Name also on VO Frequency 128.175 MHZ
Type GND Name Frequency 121.625 MHZ
Type HANDLING & Name Frequency 131.4 MHZ
Type TWR Name TWR Frequency 118 MHZ
Airport Navaids
Type VOR-DME Name Dolsko Frequency 112700 KHZ
Type NDB Name Dolsko Frequency 328 KHZ
Type NDB Name Ljubljana Frequency 296 KHZ
Airport Weather Information & NOTAM
ADDS - METARS form results

(1159 UTC 26 January 2022)
Data provider http://aviationweather.gov/metar/data/
 
METAR text: LJLJ 261130Z VRB02KT 9999 BKN013 02/M03 Q1028 NOSIG
Conditions at: LJLJ (LJUBLJANA/BRNIK , SI) observed 1130 UTC 26 January 2022
Temperature: 2.0°C (36°F)
Dewpoint: -3.0°C (27°F) [RH = 69%]
Pressure (altimeter): 30.35 inches Hg (1028.0 mb)
Winds: variable direction winds at 2 MPH (2 knots; 1.0 m/s)
Visibility: 6 or more miles (10+ km)
Ceiling: 1300 feet AGL
Clouds: broken clouds at 1300 feet AGL
Weather: no significant weather observed at this time

METAR text: LJLJ 261100Z 31004KT 280V340 9999 BKN013 02/M01 Q1028 NOSIG
Conditions at: LJLJ (LJUBLJANA/BRNIK , SI) observed 1100 UTC 26 January 2022
Temperature: 2.0°C (36°F)
Dewpoint: -1.0°C (30°F) [RH = 80%]
Pressure (altimeter): 30.35 inches Hg (1028.0 mb)
Winds: from the NW (310 degrees) at 5 MPH (4 knots; 2.1 m/s)
Visibility: 6 or more miles (10+ km)
Ceiling: 1300 feet AGL
Clouds: broken clouds at 1300 feet AGL
Weather: no significant weather observed at this time

Forecast for: LJLJ (LJUBLJANA/BRNIK , SI)
Text: TAF LJLJ 261100Z 2612/2712 VRB02KT 9999 SCT025
Forecast period: 1200 UTC 26 January 2022 to 1200 UTC 27 January 2022
Forecast type: FROM: standard forecast or significant change
Winds: variable direction winds at 2 MPH (2 knots; 1.0 m/s)
Visibility: 6 or more miles (10+ km)
Ceiling: at least 12,000 feet AGL
Clouds: scattered clouds at 2500 feet AGL
Weather: no significant weather forecast for this period
Text: TEMPO 2621/2712 3500 BR BKN003
Forecast period: 2100 UTC 26 January 2022 to 1200 UTC 27 January 2022
Forecast type: TEMPORARY: The following changes expected for less than half the time period
Visibility: 2.17 miles (3.49 km)
Ceiling: 300 feet AGL
Clouds: broken clouds at 300 feet AGL
Weather: BR  (mist)
Text: PROB40
Forecast period: 0000 to 1200 UTC 27 January 2022
Forecast type: TEMPORARY: The following changes expected for less than half the time period
Visibility: 0.22 miles (0.35 km)
Ceiling: indefinite ceiling with vertical visibility of 100 feet AGL
Clouds: obscured sky
Weather: FZFG  (freezing fog)